Time;durP1;ratioP1;P1;durP2;ratioP2;P2;SDS_P1;SDS_P2;PMS_P1;PMS_P2;Temp;Humidity;BMP_temperature;BMP_pressure;BME280_temperature;BME280_humidity;BME280_pressure;Samples;Min_cycle;Max_cycle;Signal;HPM_P1;HPM_P2
2022/12/06 00:01:21;;;;;;;31.67;16.80;;;;;;;7.06;66.18;102130.50;5002592;28;20386;-77
2022/12/06 00:03:54;;;;;;;30.55;16.13;;;;;;;7.02;66.35;102136.97;5007512;28;20467;-76
2022/12/06 00:06:21;;;;;;;29.15;16.48;;;;;;;7.20;66.42;102141.84;5012006;28;20539;-77
2022/12/06 00:08:48;;;;;;;29.40;16.48;;;;;;;7.36;65.53;102144.19;5011365;28;20387;-76
2022/12/06 00:11:17;;;;;;;29.80;16.35;;;;;;;7.41;65.55;102148.16;5012106;28;20388;-77
2022/12/06 00:13:44;;;;;;;31.23;18.07;;;;;;;7.49;65.44;102144.97;5011817;28;20459;-77
2022/12/06 00:16:12;;;;;;;28.80;17.17;;;;;;;7.54;64.80;102134.88;4992752;28;20405;-77
2022/12/06 00:18:40;;;;;;;28.27;16.17;;;;;;;7.61;64.82;102143.19;5004575;28;20449;-77
2022/12/06 00:21:10;;;;;;;29.75;16.80;;;;;;;7.50;65.06;102135.25;5011667;28;20392;-77
2022/12/06 00:23:37;;;;;;;27.35;15.40;;;;;;;7.44;65.06;102132.13;5011645;28;20854;-76
2022/12/06 00:26:04;;;;;;;27.60;15.88;;;;;;;7.46;64.95;102126.72;5010705;28;20755;-77
2022/12/06 00:28:30;;;;;;;28.75;16.50;;;;;;;7.45;65.48;102128.53;5011686;28;20377;-76
2022/12/06 00:30:59;;;;;;;29.73;16.97;;;;;;;7.33;65.30;102128.56;5011396;28;20395;-77
2022/12/06 00:33:25;;;;;;;32.42;18.58;;;;;;;7.28;65.84;102129.78;5010193;28;20732;-76
2022/12/06 00:35:58;;;;;;;31.77;16.20;;;;;;;7.37;65.60;102124.78;5010789;28;20407;-76
2022/12/06 00:38:25;;;;;;;28.98;15.93;;;;;;;7.32;65.32;102105.81;5002543;28;20746;-77
2022/12/06 00:40:59;;;;;;;31.20;17.13;;;;;;;7.34;65.29;102117.91;5002691;28;20380;-77
2022/12/06 00:43:24;;;;;;;31.73;17.17;;;;;;;7.32;65.62;102122.47;5004423;28;20460;-77
2022/12/06 00:45:50;;;;;;;28.27;16.00;;;;;;;7.35;65.63;102116.16;4926808;28;1855502;-77
2022/12/06 00:48:15;;;;;;;28.27;16.83;;;;;;;7.33;65.27;102110.97;5010827;28;20423;-77
2022/12/06 00:50:41;;;;;;;31.90;17.50;;;;;;;7.37;65.49;102111.59;5006322;28;20382;-77
2022/12/06 00:53:06;;;;;;;32.08;18.05;;;;;;;7.40;65.07;102108.69;4991716;28;20397;-77
2022/12/06 00:55:32;;;;;;;31.17;17.67;;;;;;;7.33;65.01;102116.25;5008709;28;20435;-77
2022/12/06 00:57:57;;;;;;;33.23;18.47;;;;;;;7.26;65.47;102113.22;5010210;28;20745;-77
2022/12/06 01:00:23;;;;;;;34.05;18.33;;;;;;;7.25;65.69;102108.88;5009021;28;20392;-77
2022/12/06 01:02:48;;;;;;;30.40;17.23;;;;;;;7.22;65.70;102100.34;5010064;28;20384;-77
2022/12/06 01:05:13;;;;;;;29.80;16.67;;;;;;;7.25;65.47;102093.06;5009261;28;20404;-77
2022/12/06 01:07:39;;;;;;;28.38;15.77;;;;;;;7.26;65.55;102105.31;4982800;28;20387;-77
2022/12/06 01:10:05;;;;;;;26.83;15.90;;;;;;;7.30;65.68;102100.66;5011938;28;20388;-77
2022/12/06 01:12:31;;;;;;;30.77;16.80;;;;;;;7.32;65.42;102100.53;5011676;28;20479;-77
2022/12/06 01:14:56;;;;;;;27.10;15.90;;;;;;;7.33;65.47;102102.19;5011814;28;20475;-77
2022/12/06 01:17:21;;;;;;;29.47;16.57;;;;;;;7.25;65.82;102100.13;5009189;28;20400;-77
2022/12/06 01:19:49;;;;;;;28.83;16.70;;;;;;;7.27;65.68;102100.88;4991271;28;20385;-77
2022/12/06 01:22:14;;;;;;;29.10;16.98;;;;;;;7.21;65.52;102094.25;5006495;28;20394;-77
2022/12/06 01:24:40;;;;;;;35.67;17.93;;;;;;;7.35;65.28;102097.69;5013092;28;20733;-77
2022/12/06 01:27:06;;;;;;;28.70;16.70;;;;;;;7.27;65.58;102093.81;4999967;28;20422;-77
2022/12/06 01:29:32;;;;;;;28.20;16.20;;;;;;;7.16;66.06;102090.28;5008845;28;20876;-77
2022/12/06 01:31:58;;;;;;;30.08;16.58;;;;;;;7.28;65.85;102092.84;5012061;28;20380;-77
2022/12/06 01:34:23;;;;;;;25.48;15.60;;;;;;;7.37;65.07;102088.69;5016095;28;20461;-77
2022/12/06 01:36:49;;;;;;;28.03;15.47;;;;;;;7.22;65.33;102074.84;5029312;28;20606;-76
2022/12/06 01:39:14;;;;;;;29.40;15.87;;;;;;;7.22;66.00;102084.53;5022700;28;20409;-76
2022/12/06 01:41:40;;;;;;;26.60;15.37;;;;;;;7.21;65.79;102069.69;5020759;28;20423;-76
2022/12/06 01:44:26;;;;;;;29.45;16.30;;;;;;;7.23;65.82;102073.03;5028860;28;20372;-76
2022/12/06 01:46:53;;;;;;;28.17;16.20;;;;;;;7.26;65.41;102078.09;5023399;28;20408;-76
2022/12/06 01:49:26;;;;;;;27.30;15.63;;;;;;;7.32;65.54;102075.00;5018091;28;20404;-76
2022/12/06 01:51:59;;;;;;;29.95;16.50;;;;;;;7.31;65.50;102069.81;5011658;28;20392;-76
2022/12/06 01:54:25;;;;;;;30.17;16.63;;;;;;;7.27;65.67;102064.81;5011257;28;20403;-77
2022/12/06 01:56:52;;;;;;;30.58;16.20;;;;;;;7.16;65.89;102056.81;5011104;28;20474;-76
2022/12/06 01:59:20;;;;;;;29.30;16.92;;;;;;;7.11;66.10;102058.13;5004039;28;20385;-77
2022/12/06 02:01:46;;;;;;;31.88;17.17;;;;;;;7.21;65.92;102059.97;5004668;28;20395;-76
2022/12/06 02:04:12;;;;;;;28.10;15.73;;;;;;;7.16;66.01;102063.91;5010726;28;20864;-76
2022/12/06 02:06:39;;;;;;;35.22;24.98;;;;;;;7.12;66.25;102060.66;5010623;28;20845;-76
2022/12/06 02:09:07;;;;;;;28.67;15.40;;;;;;;7.12;66.47;102055.38;5007247;28;20784;-77
2022/12/06 02:11:33;;;;;;;26.13;15.00;;;;;;;7.18;66.33;102056.72;5001188;28;20384;-77
2022/12/06 02:14:00;;;;;;;26.17;15.05;;;;;;;7.19;66.07;102059.25;5008866;28;20380;-77
2022/12/06 02:17:02;;;;;;;26.67;14.50;;;;;;;7.11;66.27;102047.59;4991323;28;20479;-77
2022/12/06 02:20:05;;;;;;;29.38;15.43;;;;;;;7.21;66.07;102045.94;5009616;28;20399;-77
2022/12/06 02:22:53;;;;;;;27.52;15.50;;;;;;;7.32;65.84;102053.88;4994543;28;20394;-77
2022/12/06 02:25:46;;;;;;;29.50;17.58;;;;;;;7.35;65.92;102053.66;5001056;28;20904;-77
2022/12/06 02:28:29;;;;;;;26.50;15.23;;;;;;;7.35;65.65;102040.47;4997953;28;20376;-77
2022/12/06 02:31:04;;;;;;;27.83;15.00;;;;;;;7.35;65.39;102039.66;5010345;28;20392;-77
2022/12/06 02:33:38;;;;;;;28.42;15.57;;;;;;;7.32;65.86;102042.50;5001939;28;20739;-77
2022/12/06 02:36:45;;;;;;;27.30;14.88;;;;;;;7.39;65.41;102047.19;4992554;28;20882;-77
2022/12/06 02:39:23;;;;;;;22.85;13.13;;;;;;;7.11;66.05;102039.69;5001361;28;20401;-77
2022/12/06 02:42:10;;;;;;;21.80;13.20;;;;;;;7.04;66.41;102040.13;4997038;28;20380;-77
2022/12/06 02:44:44;;;;;;;23.30;13.52;;;;;;;7.10;66.35;102022.19;5007391;28;20429;-77
2022/12/06 02:47:11;;;;;;;22.08;13.40;;;;;;;7.15;66.01;102023.53;4990920;28;20425;-77
2022/12/06 02:49:45;;;;;;;22.33;13.85;;;;;;;7.18;65.94;102022.44;5004602;28;20453;-77
2022/12/06 02:52:12;;;;;;;24.17;13.88;;;;;;;7.28;65.45;102029.53;5009286;28;20384;-77
2022/12/06 02:54:39;;;;;;;22.00;12.83;;;;;;;7.32;65.49;102021.41;5010542;28;20876;-77
2022/12/06 02:57:04;;;;;;;21.48;13.00;;;;;;;7.28;65.71;102012.88;5003070;28;20906;-77
2022/12/06 02:59:30;;;;;;;20.70;13.07;;;;;;;7.26;65.97;102015.63;5008471;28;20384;-77
2022/12/06 03:01:58;;;;;;;22.47;13.30;;;;;;;7.28;65.92;102015.53;5005789;28;20399;-77
2022/12/06 03:04:49;;;;;;;20.95;13.32;;;;;;;7.21;65.82;102007.22;4997861;28;20468;-77
2022/12/06 03:07:34;;;;;;;22.13;13.10;;;;;;;7.25;65.46;102010.47;4989766;28;20377;-77
2022/12/06 03:10:18;;;;;;;23.33;13.48;;;;;;;7.21;65.92;102001.94;5005956;28;20386;-77
2022/12/06 03:12:58;;;;;;;22.30;13.57;;;;;;;7.18;66.02;101996.91;5008023;28;20391;-77
2022/12/06 03:15:32;;;;;;;19.50;12.43;;;;;;;7.20;65.64;101994.16;5009528;28;20408;-76
2022/12/06 03:18:07;;;;;;;24.95;13.18;;;;;;;7.10;66.05;101990.53;4995415;28;20542;-77
2022/12/06 03:20:41;;;;;;;21.63;12.77;;;;;;;7.10;66.33;101995.81;5007561;28;20479;-77
2022/12/06 03:23:14;;;;;;;21.23;13.80;;;;;;;7.26;65.75;102001.63;5006900;28;20826;-77
2022/12/06 03:25:42;;;;;;;19.90;12.73;;;;;;;7.29;65.65;101998.72;5006870;28;20868;-77
2022/12/06 03:28:12;;;;;;;20.13;13.25;;;;;;;7.37;65.52;101999.00;5007127;28;20415;-77
2022/12/06 03:30:42;;;;;;;20.80;12.40;;;;;;;7.36;65.43;101996.47;5007060;28;20883;-77
2022/12/06 03:33:09;;;;;;;20.67;12.75;;;;;;;7.35;65.52;101997.44;5004723;28;20860;-76
2022/12/06 03:35:36;;;;;;;17.75;11.77;;;;;;;7.35;65.35;101990.34;4990115;28;20402;-77
2022/12/06 03:38:16;;;;;;;21.00;12.80;;;;;;;7.43;65.55;101992.41;4987960;28;20406;-77
2022/12/06 03:40:47;;;;;;;17.40;11.97;;;;;;;7.32;65.28;101981.84;5013233;28;20388;-76
2022/12/06 03:43:12;;;;;;;18.73;12.80;;;;;;;7.28;65.54;101989.16;4998309;28;20390;-78
2022/12/06 03:45:45;;;;;;;18.90;12.85;;;;;;;7.18;65.51;101983.72;5001733;28;20403;-77
2022/12/06 03:48:47;;;;;;;21.02;12.48;;;;;;;7.22;65.35;101979.03;5012899;28;20451;-77
2022/12/06 03:51:19;;;;;;;21.73;12.32;;;;;;;7.30;65.58;101981.94;4993256;28;20397;-76
2022/12/06 03:53:52;;;;;;;22.08;12.80;;;;;;;7.28;65.28;101979.44;4998253;28;20423;-77
2022/12/06 03:56:18;;;;;;;21.15;12.98;;;;;;;7.28;65.30;101984.69;5013555;28;20926;-77
2022/12/06 03:58:44;;;;;;;20.83;13.07;;;;;;;7.22;65.63;101984.31;5013317;28;20786;-76
2022/12/06 04:01:10;;;;;;;21.05;13.10;;;;;;;7.27;65.53;101982.16;5000361;28;20391;-77
2022/12/06 04:03:36;;;;;;;21.23;12.90;;;;;;;7.35;65.30;101985.09;4993249;28;20385;-77
2022/12/06 04:06:03;;;;;;;22.65;14.00;;;;;;;7.34;65.73;101978.09;4995317;28;20380;-77
2022/12/06 04:08:29;;;;;;;22.53;13.47;;;;;;;7.24;65.63;101983.25;4992412;28;20460;-77
2022/12/06 04:10:54;;;;;;;22.00;13.50;;;;;;;7.27;65.75;101987.44;4996667;28;20407;-76
2022/12/06 04:13:20;;;;;;;21.70;13.25;;;;;;;7.39;65.43;101975.97;5008608;28;20408;-76
2022/12/06 04:15:45;;;;;;;21.37;13.87;;;;;;;7.42;65.22;101978.38;4988384;28;20903;-77
2022/12/06 04:18:13;;;;;;;21.83;13.10;;;;;;;7.33;65.19;101978.22;4988385;28;20736;-76
2022/12/06 04:23:37;;;;;;;20.17;12.55;;;;;;;7.34;65.52;101986.03;4999929;28;20396;-76
2022/12/06 04:26:04;;;;;;;21.23;12.38;;;;;;;7.38;65.50;101969.03;4985315;28;20872;-76
2022/12/06 04:39:27;;;;;;;21.10;14.27;;;;;;;7.08;66.02;101959.84;5008267;28;20893;-76
2022/12/06 04:44:37;;;;;;;60.47;54.13;;;;;;;7.22;65.99;101960.59;4996737;28;20454;-76
2022/12/06 04:47:03;;;;;;;22.77;12.17;;;;;;;7.18;65.89;101959.16;5001494;28;20409;-76
2022/12/06 04:49:29;;;;;;;23.35;14.70;;;;;;;7.24;65.45;101956.06;4991775;28;20394;-76
2022/12/06 04:51:55;;;;;;;22.58;13.30;;;;;;;7.31;65.71;101956.41;4995787;28;20388;-76
2022/12/06 04:54:21;;;;;;;26.05;18.65;;;;;;;7.43;65.36;101961.56;4993574;28;20920;-76
2022/12/06 04:56:46;;;;;;;23.25;14.00;;;;;;;7.41;65.35;101967.94;5008515;28;20400;-77
2022/12/06 04:59:12;;;;;;;22.65;13.45;;;;;;;7.37;65.34;101956.78;5004006;28;20397;-76
2022/12/06 05:01:37;;;;;;;22.58;15.23;;;;;;;7.33;65.38;101962.41;4992385;28;20396;-77
2022/12/06 05:04:03;;;;;;;23.73;15.70;;;;;;;7.33;65.38;101965.03;4990839;28;20742;-76
2022/12/06 05:06:29;;;;;;;28.30;24.93;;;;;;;7.33;65.18;101963.25;4990632;28;20517;-77
2022/12/06 05:08:54;;;;;;;20.33;12.48;;;;;;;7.33;65.16;101959.75;4999146;28;20433;-77
2022/12/06 05:11:20;;;;;;;20.27;11.38;;;;;;;7.35;65.22;101952.59;4998176;28;20401;-77
2022/12/06 05:13:45;;;;;;;20.27;11.30;;;;;;;7.20;65.56;101954.59;4988442;28;20817;-77
2022/12/06 05:16:12;;;;;;;19.00;12.77;;;;;;;7.16;65.75;101953.97;4983900;28;20406;-77
2022/12/06 05:18:38;;;;;;;16.95;10.88;;;;;;;7.20;65.60;101954.59;4993577;28;20823;-76
2022/12/06 05:21:11;;;;;;;17.77;10.80;;;;;;;7.30;65.51;101952.94;4992179;28;20390;-77
2022/12/06 05:23:37;;;;;;;18.90;11.07;;;;;;;7.42;65.15;101951.16;4992258;28;20421;-77
2022/12/06 05:26:05;;;;;;;19.20;11.70;;;;;;;7.49;64.84;101954.16;4984494;28;20400;-77
2022/12/06 05:28:33;;;;;;;17.27;10.70;;;;;;;7.32;64.86;101950.19;4989421;28;20473;-76
2022/12/06 05:30:58;;;;;;;19.25;11.35;;;;;;;7.26;65.39;101951.50;4994654;28;20390;-76
2022/12/06 05:33:25;;;;;;;22.55;17.50;;;;;;;7.30;65.22;101947.66;4986015;28;20844;-76
2022/12/06 05:35:51;;;;;;;21.63;13.10;;;;;;;7.25;65.49;101949.81;4978302;28;20414;-77
2022/12/06 05:38:17;;;;;;;19.73;11.68;;;;;;;7.30;65.28;101946.81;4997423;28;20388;-77
2022/12/06 05:40:43;;;;;;;18.77;11.47;;;;;;;7.37;64.94;101953.31;4992251;28;20414;-76
2022/12/06 05:43:09;;;;;;;20.27;12.60;;;;;;;7.47;64.87;101948.97;4990917;28;20472;-76
2022/12/06 05:45:38;;;;;;;19.60;12.00;;;;;;;7.42;65.06;101944.06;4977066;28;20565;-76
2022/12/06 05:48:04;;;;;;;20.55;12.68;;;;;;;7.41;65.10;101939.75;4986461;28;20413;-76
2022/12/06 05:50:30;;;;;;;23.70;15.75;;;;;;;7.43;64.71;101937.81;4987525;28;20489;-77
2022/12/06 05:52:56;;;;;;;24.15;17.65;;;;;;;7.52;64.40;101946.81;4981184;28;20835;-77
2022/12/06 05:55:22;;;;;;;46.08;41.67;;;;;;;7.40;65.02;101934.59;4984941;28;20491;-77
2022/12/06 05:57:48;;;;;;;21.75;12.85;;;;;;;7.47;65.12;101939.28;4984695;28;20425;-76
2022/12/06 06:00:14;;;;;;;33.10;29.50;;;;;;;7.58;64.90;101942.88;4992728;28;20385;-77
2022/12/06 06:02:40;;;;;;;20.13;12.47;;;;;;;7.71;64.16;101945.41;4990980;28;20483;-76
2022/12/06 06:05:06;;;;;;;21.90;12.43;;;;;;;7.64;63.89;101942.41;4993374;28;20382;-77
2022/12/06 06:07:32;;;;;;;21.35;13.07;;;;;;;7.58;64.46;101948.16;5004223;28;20909;-77
2022/12/06 06:09:58;;;;;;;23.38;12.95;;;;;;;7.58;64.74;101953.44;4991314;28;20486;-77
2022/12/06 06:12:23;;;;;;;22.50;13.38;;;;;;;7.59;64.58;101944.56;4993386;28;20462;-77
2022/12/06 06:14:49;;;;;;;22.93;14.27;;;;;;;7.59;64.58;101950.66;5002972;28;20378;-76
2022/12/06 06:17:14;;;;;;;21.07;13.00;;;;;;;7.75;64.26;101957.41;4990458;28;20810;-76
2022/12/06 06:19:40;;;;;;;132.55;120.63;;;;;;;7.83;63.95;101955.84;5004008;28;20436;-77
2022/12/06 06:22:06;;;;;;;21.95;16.30;;;;;;;7.87;64.18;101947.66;5003257;28;20928;-76
2022/12/06 06:24:36;;;;;;;23.57;17.33;;;;;;;7.91;63.92;101942.03;5010453;28;20798;-77
2022/12/06 06:27:02;;;;;;;51.55;46.50;;;;;;;7.81;63.72;101939.28;4999237;28;20385;-77
2022/12/06 06:29:29;;;;;;;24.87;20.60;;;;;;;7.82;63.71;101946.22;4979910;28;20386;-77
2022/12/06 06:31:54;;;;;;;19.92;12.15;;;;;;;7.79;63.83;101940.34;5010521;28;20399;-76
2022/12/06 06:34:20;;;;;;;21.15;12.27;;;;;;;7.65;64.20;101933.50;5007944;28;20391;-76
2022/12/06 06:36:45;;;;;;;18.40;11.20;;;;;;;7.57;64.38;101933.28;5005520;28;20441;-76
2022/12/06 06:39:11;;;;;;;22.17;12.70;;;;;;;7.58;64.38;101925.25;5000963;28;20913;-76
2022/12/06 06:41:36;;;;;;;23.00;13.02;;;;;;;7.58;64.38;101927.03;5010450;28;20392;-77
2022/12/06 06:44:02;;;;;;;21.13;13.25;;;;;;;7.54;64.67;101923.78;4997148;28;20504;-76
2022/12/06 06:46:27;;;;;;;19.40;11.40;;;;;;;7.57;64.59;101928.84;5000976;28;20805;-77
2022/12/06 06:48:53;;;;;;;19.33;12.13;;;;;;;7.57;64.91;101928.00;5011384;28;20424;-77
2022/12/06 06:51:18;;;;;;;17.50;11.40;;;;;;;7.57;64.28;101923.56;5009670;28;20380;-76
2022/12/06 06:53:44;;;;;;;17.97;11.50;;;;;;;7.58;64.75;101937.59;5000161;28;20404;-76
2022/12/06 06:56:10;;;;;;;16.83;10.77;;;;;;;7.53;64.47;101937.13;5011384;28;20419;-77
2022/12/06 06:58:36;;;;;;;18.47;10.67;;;;;;;7.53;64.71;101932.69;5008461;28;20880;-77
2022/12/06 07:01:04;;;;;;;17.30;11.05;;;;;;;7.53;64.55;101935.31;4997470;28;20393;-77
2022/12/06 07:03:30;;;;;;;20.63;11.07;;;;;;;7.45;64.67;101929.78;4990998;28;20470;-76
2022/12/06 07:05:58;;;;;;;19.35;12.18;;;;;;;7.52;65.10;101946.81;5003611;28;20463;-76
2022/12/06 07:08:24;;;;;;;19.90;12.02;;;;;;;7.48;64.72;101934.84;5011514;28;20399;-77
2022/12/06 07:10:50;;;;;;;18.85;11.48;;;;;;;7.48;64.64;101921.66;5006455;28;20479;-76
2022/12/06 07:13:17;;;;;;;17.92;11.77;;;;;;;7.47;64.90;101914.69;5001261;28;20470;-77
2022/12/06 07:15:43;;;;;;;16.77;10.65;;;;;;;7.40;64.84;101916.13;5010488;28;20407;-77
2022/12/06 07:18:09;;;;;;;18.38;11.60;;;;;;;7.37;65.14;101916.38;4996125;28;20405;-77
2022/12/06 07:20:35;;;;;;;20.58;12.60;;;;;;;7.51;64.86;101917.91;4998455;28;20386;-77
2022/12/06 07:23:00;;;;;;;21.17;13.20;;;;;;;7.53;64.83;101916.03;4994752;28;20468;-76
2022/12/06 07:25:26;;;;;;;23.43;14.20;;;;;;;7.64;64.54;101923.94;4999635;28;20390;-78
2022/12/06 07:27:51;;;;;;;20.17;13.43;;;;;;;7.61;64.62;101917.06;5010687;28;20880;-76
2022/12/06 07:30:17;;;;;;;28.38;17.50;;;;;;;7.62;64.73;101910.03;4996028;28;20420;-77
2022/12/06 07:32:42;;;;;;;24.88;15.75;;;;;;;7.58;64.70;101919.13;5004140;28;20864;-77
2022/12/06 07:35:08;;;;;;;20.57;12.67;;;;;;;7.52;64.86;101917.81;4996949;28;20389;-77
2022/12/06 07:37:33;;;;;;;19.13;12.13;;;;;;;7.52;64.73;101917.81;5004769;28;20461;-76
2022/12/06 07:39:59;;;;;;;16.80;11.33;;;;;;;7.60;64.60;101911.94;5007587;28;20391;-77
2022/12/06 07:45:11;;;;;;;20.27;12.07;;;;;;;7.67;64.18;101915.78;4994745;28;20393;-77
2022/12/06 07:47:39;;;;;;;21.65;14.15;;;;;;;7.71;64.56;101913.75;4995338;28;20413;-77
2022/12/06 07:50:07;;;;;;;21.42;13.02;;;;;;;7.64;64.44;101924.75;5004859;28;20479;-76
2022/12/06 07:52:34;;;;;;;19.85;12.23;;;;;;;7.62;64.21;101925.84;5007550;28;20383;-76
2022/12/06 07:55:00;;;;;;;17.67;11.98;;;;;;;7.69;64.69;101920.91;4983967;28;20714;-79
2022/12/06 07:57:26;;;;;;;20.80;13.02;;;;;;;7.82;64.39;101917.19;4993440;28;20897;-77
2022/12/06 07:59:51;;;;;;;20.60;13.25;;;;;;;7.84;63.92;101917.91;5003807;28;20495;-76
2022/12/06 08:02:21;;;;;;;27.52;16.30;;;;;;;7.88;63.87;101912.38;5003930;28;20375;-76
2022/12/06 08:04:47;;;;;;;20.75;13.05;;;;;;;7.90;63.87;101916.56;4996212;28;20382;-75
2022/12/06 08:07:13;;;;;;;21.92;13.75;;;;;;;7.91;64.05;101909.50;5001695;28;20382;-76
2022/12/06 08:09:40;;;;;;;19.35;12.32;;;;;;;7.87;63.90;101914.19;4993185;28;20386;-77
2022/12/06 08:12:07;;;;;;;17.63;11.67;;;;;;;7.85;64.21;101908.19;5003381;28;20440;-77
2022/12/06 08:14:33;;;;;;;17.73;11.43;;;;;;;7.83;64.03;101908.31;5002522;28;20391;-77
2022/12/06 08:16:59;;;;;;;16.27;11.25;;;;;;;7.83;64.67;101912.75;4998113;28;20399;-77
2022/12/06 08:19:24;;;;;;;17.42;10.65;;;;;;;7.94;63.78;101914.53;5009654;28;20380;-77
2022/12/06 08:21:50;;;;;;;18.45;11.95;;;;;;;8.06;63.85;101908.25;5006810;28;20800;-76
2022/12/06 08:24:16;;;;;;;15.35;10.63;;;;;;;8.09;63.52;101901.91;5010805;28;20423;-76
2022/12/06 08:26:41;;;;;;;17.03;9.77;;;;;;;8.00;63.70;101888.47;5000812;28;20382;-76
2022/12/06 08:29:07;;;;;;;16.77;10.03;;;;;;;7.85;63.85;101890.56;4993813;28;20377;-76
2022/12/06 08:31:35;;;;;;;15.95;10.13;;;;;;;7.85;63.68;101890.56;4992792;28;20512;-77
2022/12/06 08:34:02;;;;;;;15.52;10.73;;;;;;;7.87;63.67;101892.22;4993641;28;20390;-77
2022/12/06 08:36:28;;;;;;;18.50;10.75;;;;;;;7.88;63.66;101888.63;4995613;28;20402;-76
2022/12/06 08:38:54;;;;;;;20.33;11.90;;;;;;;8.01;63.63;101889.31;5008955;28;20464;-76
2022/12/06 08:44:06;;;;;;;15.52;8.25;;;;;;;9.72;71.67;101889.03;5010083;28;20388;-77
2022/12/06 08:46:33;;;;;;;9.32;5.85;;;;;;;9.76;72.41;101890.41;5010870;28;20416;-77
2022/12/06 08:48:59;;;;;;;14.25;8.57;;;;;;;10.47;69.91;101889.38;5003559;28;20387;-79
2022/12/06 08:51:24;;;;;;;14.68;9.85;;;;;;;10.02;65.04;101881.94;5002044;28;20475;-80
2022/12/06 08:53:54;;;;;;;17.63;11.07;;;;;;;9.52;63.76;101888.09;4998752;28;20463;-80
2022/12/06 08:56:20;;;;;;;15.70;10.20;;;;;;;9.20;63.38;101882.97;4996568;28;20425;-75
2022/12/06 08:58:46;;;;;;;18.25;10.80;;;;;;;9.19;63.00;101871.53;5002729;28;20457;-76
2022/12/06 09:01:12;;;;;;;18.98;11.05;;;;;;;8.92;62.47;101871.25;4996416;28;20417;-77
2022/12/06 09:03:38;;;;;;;16.50;11.70;;;;;;;8.88;62.66;101872.50;5002950;28;20424;-77
2022/12/06 09:06:04;;;;;;;19.27;12.40;;;;;;;8.84;62.07;101868.41;4992840;28;20418;-77
2022/12/06 09:08:29;;;;;;;17.67;11.73;;;;;;;8.78;62.26;101867.13;4993658;28;20373;-76
2022/12/06 09:10:55;;;;;;;15.33;9.80;;;;;;;8.77;61.99;101861.03;4993805;28;20792;-77
2022/12/06 09:13:20;;;;;;;14.93;10.10;;;;;;;8.70;62.13;101859.88;5002580;28;20376;-77
2022/12/06 09:15:45;;;;;;;14.23;10.03;;;;;;;8.64;61.95;101852.44;5000584;28;20414;-76
2022/12/06 09:18:11;;;;;;;15.38;10.02;;;;;;;8.62;62.41;101851.72;5009204;28;20386;-76
2022/12/06 09:20:40;;;;;;;14.20;9.37;;;;;;;8.66;61.86;101849.66;4991385;28;20374;-76
2022/12/06 09:23:06;;;;;;;18.17;11.07;;;;;;;8.53;62.27;101842.75;5005241;28;20380;-75
2022/12/06 09:25:31;;;;;;;16.27;10.68;;;;;;;8.53;62.62;101836.66;4992093;28;20382;-76
2022/12/06 09:27:58;;;;;;;18.40;11.80;;;;;;;8.53;62.21;101834.00;5005286;28;20450;-76
2022/12/06 09:30:24;;;;;;;15.30;9.63;;;;;;;8.40;62.23;101820.97;4992836;28;20897;-76
2022/12/06 09:32:50;;;;;;;15.27;10.13;;;;;;;8.37;62.09;101827.34;4991526;28;20382;-76
2022/12/06 09:35:16;;;;;;;25.15;13.55;;;;;;;8.42;62.44;101830.44;4991870;28;20794;-76
2022/12/06 09:37:42;;;;;;;19.90;12.03;;;;;;;8.36;62.53;101836.22;5001120;28;20413;-77
2022/12/06 09:40:15;;;;;;;18.33;10.35;;;;;;;8.33;62.06;101833.84;5011305;28;20380;-77
2022/12/06 09:42:56;;;;;;;33.97;16.92;;;;;;;8.29;62.81;101824.50;4992230;28;20386;-77
2022/12/06 09:45:28;;;;;;;25.63;14.52;;;;;;;8.41;62.40;101820.84;5005969;28;20380;-77
2022/12/06 09:48:46;;;;;;;23.88;14.52;;;;;;;8.58;62.29;101816.78;4979018;28;20401;-77
2022/12/06 09:51:17;;;;;;;14.23;9.40;;;;;;;8.41;62.11;101817.38;4969557;28;20401;-77
2022/12/06 09:53:45;;;;;;;14.60;9.55;;;;;;;8.32;62.05;101812.81;5004520;28;20391;-78
2022/12/06 09:56:25;;;;;;;15.17;9.83;;;;;;;8.54;62.10;101812.75;5011329;28;20407;-77
2022/12/06 09:58:50;;;;;;;14.37;9.07;;;;;;;8.52;61.50;101798.81;4998980;28;20471;-78
2022/12/06 10:01:42;;;;;;;39.57;35.83;;;;;;;8.57;61.75;101796.63;5005449;28;20786;-76
2022/12/06 10:04:25;;;;;;;17.58;10.95;;;;;;;8.62;61.54;101796.22;5004323;28;20797;-76
2022/12/06 10:07:10;;;;;;;17.27;11.85;;;;;;;8.55;62.16;101787.13;5011723;28;20429;-76
2022/12/06 10:10:25;;;;;;;18.13;11.13;;;;;;;8.51;61.66;101786.56;4997239;28;20399;-78
2022/12/06 10:13:18;;;;;;;18.63;11.52;;;;;;;8.42;62.44;101768.84;4956853;28;20738;-77
2022/12/06 10:16:05;;;;;;;24.53;18.40;;;;;;;8.49;61.95;101766.53;5012137;28;20493;-76
2022/12/06 10:18:42;;;;;;;20.35;12.00;;;;;;;8.41;62.56;101761.88;5011442;28;20391;-76
2022/12/06 10:21:23;;;;;;;24.08;19.45;;;;;;;8.55;62.55;101760.72;4999236;28;20483;-77
2022/12/06 10:23:49;;;;;;;18.40;11.70;;;;;;;8.48;61.69;101759.56;4994938;28;20388;-76
2022/12/06 10:26:20;;;;;;;18.40;11.52;;;;;;;8.58;61.78;101758.66;5004184;28;20453;-77
2022/12/06 10:29:17;;;;;;;40.53;36.53;;;;;;;8.58;61.87;101763.94;5007081;28;20380;-77
2022/12/06 10:31:51;;;;;;;19.50;12.55;;;;;;;8.73;61.88;101764.44;4992809;28;20366;-76
2022/12/06 10:34:20;;;;;;;20.13;14.25;;;;;;;8.85;61.63;101762.53;5009797;28;20383;-77
2022/12/06 10:37:03;;;;;;;22.83;13.68;;;;;;;8.88;61.76;101766.75;5004025;28;20416;-76
2022/12/06 10:39:35;;;;;;;23.13;14.47;;;;;;;8.90;61.36;101746.28;5000203;28;20876;-76
2022/12/06 10:42:08;;;;;;;22.02;14.35;;;;;;;8.89;61.41;101747.25;5007307;28;20377;-78
2022/12/06 10:44:56;;;;;;;27.05;24.10;;;;;;;8.90;61.08;101743.63;5023998;28;20376;-77
2022/12/06 10:47:33;;;;;;;32.00;25.25;;;;;;;8.90;61.64;101727.78;5003391;28;20408;-77
2022/12/06 10:50:17;;;;;;;21.60;13.82;;;;;;;8.94;61.71;101732.66;5015715;28;20459;-77
2022/12/06 10:52:49;;;;;;;20.15;13.40;;;;;;;8.97;61.00;101731.56;5002909;28;20416;-78
2022/12/06 10:55:27;;;;;;;21.67;12.43;;;;;;;8.94;61.57;101721.25;5015269;28;20380;-76
2022/12/06 10:58:08;;;;;;;17.20;12.40;;;;;;;8.97;61.07;101721.81;4997270;28;20496;-77
2022/12/06 11:00:40;;;;;;;18.77;12.85;;;;;;;9.00;61.08;101712.75;5009581;28;20384;-78
2022/12/06 11:03:18;;;;;;;21.17;13.50;;;;;;;8.98;60.66;101712.06;5016937;28;20407;-77
2022/12/06 11:05:58;;;;;;;24.75;15.25;;;;;;;8.86;61.37;101716.63;5015110;28;20398;-76
2022/12/06 11:08:30;;;;;;;20.98;13.15;;;;;;;8.92;61.29;101709.97;5014326;28;20427;-76
2022/12/06 11:10:58;;;;;;;21.13;13.68;;;;;;;8.88;60.82;101713.84;5001611;28;20783;-78
2022/12/06 11:13:50;;;;;;;22.40;14.13;;;;;;;8.87;60.54;101714.81;5015384;28;20391;-78
2022/12/06 11:16:37;;;;;;;38.13;31.10;;;;;;;8.98;60.88;101709.41;4997987;28;20416;-76
2022/12/06 11:19:32;;;;;;;21.33;13.73;;;;;;;8.98;60.28;101697.03;4995293;28;20382;-77
2022/12/06 11:22:11;;;;;;;23.30;15.05;;;;;;;8.99;60.63;101705.81;4980965;28;20416;-77
2022/12/06 11:24:46;;;;;;;23.33;16.38;;;;;;;9.01;60.79;101698.56;5010460;28;20388;-78
2022/12/06 11:27:14;;;;;;;22.75;19.48;;;;;;;8.95;60.55;101689.38;5006992;28;20393;-77
2022/12/06 11:29:42;;;;;;;21.88;15.52;;;;;;;8.90;60.90;101686.28;5008220;28;20392;-78
2022/12/06 11:32:11;;;;;;;30.98;26.60;;;;;;;8.94;60.88;101685.03;4995444;28;20389;-76
2022/12/06 11:34:48;;;;;;;24.42;17.08;;;;;;;8.93;60.84;101683.38;4995451;28;20382;-78
2022/12/06 11:37:22;;;;;;;27.92;15.55;;;;;;;8.96;60.90;101690.19;5001912;28;20439;-78
2022/12/06 11:39:52;;;;;;;19.20;12.10;;;;;;;9.00;60.49;101675.72;5008844;28;20477;-77
2022/12/06 11:42:24;;;;;;;16.60;10.80;;;;;;;8.92;60.46;101673.78;5014395;28;20869;-78
2022/12/06 11:44:56;;;;;;;13.50;8.32;;;;;;;8.76;60.25;101689.31;5004241;28;20390;-77
2022/12/06 11:47:22;;;;;;;12.73;8.93;;;;;;;8.68;60.45;101683.84;5009931;28;20415;-77
2022/12/06 11:49:51;;;;;;;14.70;9.45;;;;;;;8.83;60.45;101682.50;5030245;28;20395;-79
2022/12/06 11:52:29;;;;;;;16.60;11.40;;;;;;;8.83;59.75;101676.41;5014171;28;20403;-77